Time;durP1;ratioP1;P1;durP2;ratioP2;P2;SDS_P1;SDS_P2;PMS_P1;PMS_P2;Temp;Humidity;BMP_temperature;BMP_pressure;BME280_temperature;BME280_humidity;BME280_pressure;Samples;Min_cycle;Max_cycle;Signal;HPM_P1;HPM_P2
2023/01/28 20:11:58;;;;;;;40.45;29.08;;;1.70;65.80;;;;;;5163185;22;20415;-68
2023/01/28 20:14:23;;;;;;;41.85;29.00;;;1.70;64.80;;;;;;5029351;28;20030;-64
2023/01/28 20:16:49;;;;;;;41.97;28.48;;;1.70;65.30;;;;;;5011897;28;20463;-68
2023/01/28 20:19:17;;;;;;;38.70;27.52;;;1.80;65.70;;;;;;5010049;28;20040;-65
2023/01/28 20:21:43;;;;;;;35.13;22.50;;;1.90;65.90;;;;;;5035348;28;20036;-71
2023/01/28 20:24:11;;;;;;;32.85;21.35;;;2.00;65.90;;;;;;5018670;28;20021;-75
2023/01/28 20:26:39;;;;;;;24.88;16.20;;;2.10;66.00;;;;;;5028087;28;20037;-68
2023/01/28 20:29:17;;;;;;;26.75;16.75;;;2.20;66.00;;;;;;5030365;28;20021;-73
2023/01/28 20:31:43;;;;;;;21.63;14.30;;;2.20;65.90;;;;;;5027788;28;20042;-64
2023/01/28 20:34:16;;;;;;;19.30;13.90;;;2.20;65.80;;;;;;5020164;28;20164;-67
2023/01/28 20:36:42;;;;;;;17.15;11.68;;;2.30;65.90;;;;;;5030250;28;20045;-66
2023/01/28 20:39:09;;;;;;;16.88;12.10;;;2.40;65.80;;;;;;5030348;28;20142;-68
2023/01/28 20:41:34;;;;;;;15.95;11.13;;;2.40;65.70;;;;;;5028103;28;20029;-69
2023/01/28 20:44:00;;;;;;;14.82;10.30;;;2.50;65.60;;;;;;5028522;28;20045;-65
2023/01/28 20:46:28;;;;;;;14.85;10.15;;;2.50;65.40;;;;;;5010938;28;20030;-72
2023/01/28 20:48:56;;;;;;;15.77;9.80;;;2.60;65.40;;;;;;5011000;28;20117;-69
2023/01/28 20:51:26;;;;;;;15.82;10.80;;;2.60;65.20;;;;;;5012866;28;20549;-66
2023/01/28 20:53:53;;;;;;;19.95;12.27;;;2.60;65.20;;;;;;5030408;28;20030;-65
2023/01/28 20:56:22;;;;;;;15.45;10.73;;;2.60;65.00;;;;;;5028511;28;20032;-67
2023/01/28 20:58:54;;;;;;;13.82;9.60;;;2.60;65.00;;;;;;5027412;28;20037;-66
2023/01/28 21:01:25;;;;;;;12.98;9.73;;;2.60;65.00;;;;;;5029908;28;20109;-67
2023/01/28 21:03:51;;;;;;;20.05;12.18;;;2.70;64.90;;;;;;5009301;28;20045;-68
2023/01/28 21:06:17;;;;;;;16.02;11.18;;;2.70;64.70;;;;;;5010360;28;20076;-67
2023/01/28 21:08:43;;;;;;;15.70;11.15;;;2.70;64.70;;;;;;5010240;28;20022;-64
2023/01/28 21:11:10;;;;;;;14.32;9.77;;;2.70;64.60;;;;;;5023739;28;20104;-69
2023/01/28 21:13:36;;;;;;;16.15;10.98;;;2.70;64.50;;;;;;5028361;28;20029;-66
2023/01/28 21:16:03;;;;;;;13.68;10.18;;;2.70;64.40;;;;;;5029927;28;20022;-69
2023/01/28 21:18:29;;;;;;;17.40;11.32;;;2.80;64.40;;;;;;5029134;28;20359;-70
2023/01/28 21:21:00;;;;;;;12.77;9.38;;;2.80;64.30;;;;;;5029470;28;20040;-65
2023/01/28 21:23:26;;;;;;;14.65;9.80;;;2.70;64.20;;;;;;5015662;28;20029;-66
2023/01/28 21:25:52;;;;;;;13.38;9.50;;;2.70;64.10;;;;;;5016330;28;20072;-66
2023/01/28 21:28:18;;;;;;;13.07;9.30;;;2.80;64.10;;;;;;5016215;28;20109;-67
2023/01/28 21:30:44;;;;;;;15.30;9.18;;;2.80;64.10;;;;;;5015674;28;20026;-65
2023/01/28 21:33:10;;;;;;;13.77;9.10;;;2.80;64.10;;;;;;4998250;28;20034;-67
2023/01/28 21:35:42;;;;;;;15.30;9.32;;;2.70;64.00;;;;;;5010614;28;20379;-68
2023/01/28 21:38:08;;;;;;;14.55;9.27;;;2.70;64.10;;;;;;4996497;28;20085;-67
2023/01/28 21:40:34;;;;;;;12.20;8.68;;;2.70;64.10;;;;;;5005477;28;20029;-66
2023/01/28 21:43:00;;;;;;;12.90;8.95;;;2.60;64.00;;;;;;5012202;28;20429;-66
2023/01/28 21:45:25;;;;;;;14.77;9.50;;;2.70;64.00;;;;;;5015492;28;20025;-67
2023/01/28 21:47:52;;;;;;;163.73;88.75;;;2.60;64.00;;;;;;5012033;28;20078;-65
2023/01/28 21:50:18;;;;;;;119.43;75.25;;;2.60;63.80;;;;;;5011382;28;20037;-66
2023/01/28 21:52:47;;;;;;;110.72;70.88;;;2.60;63.60;;;;;;5013568;28;20045;-65
2023/01/28 21:55:13;;;;;;;107.25;67.40;;;2.50;64.00;;;;;;5014134;28;20446;-67
2023/01/28 21:57:38;;;;;;;100.90;65.05;;;2.50;64.50;;;;;;5014204;28;20113;-68
2023/01/28 22:00:05;;;;;;;93.60;59.88;;;2.50;64.70;;;;;;5011212;28;20113;-66
2023/01/28 22:02:30;;;;;;;92.63;59.40;;;2.60;65.40;;;;;;5002570;28;20027;-66
2023/01/28 22:04:56;;;;;;;97.18;60.47;;;2.60;64.80;;;;;;5013983;28;20026;-66
2023/01/28 22:07:21;;;;;;;92.28;57.63;;;2.60;64.70;;;;;;5015683;28;20030;-65
2023/01/28 22:09:47;;;;;;;88.65;55.83;;;2.70;64.70;;;;;;5015076;28;20451;-65
2023/01/28 22:12:14;;;;;;;85.63;54.20;;;2.80;64.60;;;;;;5013287;28;20046;-65
2023/01/28 22:14:41;;;;;;;80.95;52.38;;;2.80;64.50;;;;;;5013623;28;20434;-67
2023/01/28 22:17:09;;;;;;;94.00;57.00;;;2.90;64.50;;;;;;5015391;28;20364;-67
2023/01/28 22:19:35;;;;;;;78.28;48.78;;;3.00;64.40;;;;;;5002190;28;20030;-66
2023/01/28 22:22:01;;;;;;;76.88;47.80;;;3.00;64.30;;;;;;5006542;28;20034;-66
2023/01/28 22:24:27;;;;;;;75.03;48.45;;;3.10;64.30;;;;;;4995809;28;20471;-67
2023/01/28 22:26:53;;;;;;;76.05;48.13;;;3.10;64.20;;;;;;5011505;28;20124;-66
2023/01/28 22:29:20;;;;;;;73.47;45.90;;;3.10;64.10;;;;;;5014426;28;20058;-67
2023/01/28 22:31:48;;;;;;;62.95;41.45;;;3.20;64.70;;;;;;5007765;28;20531;-70
2023/01/28 22:34:14;;;;;;;67.32;44.15;;;3.20;64.00;;;;;;5001710;28;20026;-68
2023/01/28 22:36:40;;;;;;;65.15;43.25;;;3.30;64.00;;;;;;5000382;28;20018;-68
2023/01/28 22:39:10;;;;;;;64.45;42.58;;;3.30;63.90;;;;;;5001688;28;20034;-68
2023/01/28 22:41:37;;;;;;;62.20;39.97;;;3.30;63.90;;;;;;5012989;28;20125;-69
2023/01/28 22:44:03;;;;;;;64.57;41.22;;;3.40;63.90;;;;;;5009113;28;20109;-68
2023/01/28 22:46:30;;;;;;;61.47;39.58;;;3.40;63.80;;;;;;5015203;28;20137;-67
2023/01/28 22:48:55;;;;;;;59.78;36.67;;;3.40;63.70;;;;;;5014878;28;20352;-66
2023/01/28 22:51:28;;;;;;;64.00;40.65;;;3.40;63.70;;;;;;4996858;28;20044;-65
2023/01/28 22:53:54;;;;;;;57.25;35.65;;;3.40;63.60;;;;;;5007475;28;20034;-66
2023/01/28 22:56:22;;;;;;;53.47;36.17;;;3.50;63.60;;;;;;5013612;28;20030;-67
2023/01/28 22:58:48;;;;;;;52.03;32.78;;;3.50;63.60;;;;;;5014943;28;20026;-66
2023/01/28 23:01:14;;;;;;;50.67;33.97;;;3.50;63.60;;;;;;4999785;28;20491;-68
2023/01/28 23:03:45;;;;;;;50.67;31.55;;;3.50;63.50;;;;;;5002699;28;20030;-67
2023/01/28 23:06:11;;;;;;;46.53;31.77;;;3.50;63.50;;;;;;4995378;28;20033;-66
2023/01/28 23:08:36;;;;;;;44.50;29.27;;;3.60;63.50;;;;;;5002165;28;20025;-66
2023/01/28 23:11:02;;;;;;;44.45;29.70;;;3.50;63.40;;;;;;5012414;28;20062;-66
2023/01/28 23:24:26;;;;;;;39.50;26.05;;;3.60;63.20;;;;;;5012027;28;20499;-62
2023/01/28 23:26:55;;;;;;;38.40;26.33;;;3.60;63.10;;;;;;5001554;28;20034;-63
2023/01/28 23:29:23;;;;;;;32.60;22.00;;;3.60;63.10;;;;;;4995420;28;20157;-66
2023/01/28 23:31:52;;;;;;;62.88;40.60;;;3.60;63.10;;;;;;5011225;28;20134;-69
2023/01/28 23:34:19;;;;;;;95.75;66.18;;;3.60;63.10;;;;;;5007116;28;20072;-67
2023/01/28 23:36:45;;;;;;;61.35;38.85;;;3.60;61.30;;;;;;5012611;28;20032;-64
2023/01/28 23:39:11;;;;;;;47.65;32.08;;;3.40;62.80;;;;;;4999733;28;20027;-70
2023/01/28 23:41:37;;;;;;;38.53;25.95;;;3.40;63.20;;;;;;5003577;28;20030;-71
2023/01/28 23:44:03;;;;;;;32.38;22.58;;;3.30;63.20;;;;;;5010614;28;20028;-70
2023/01/28 23:46:30;;;;;;;25.80;17.20;;;3.20;63.10;;;;;;4994206;28;20117;-71
2023/01/28 23:48:55;;;;;;;21.27;14.75;;;3.20;63.00;;;;;;4994214;28;20105;-71
2023/01/28 23:51:21;;;;;;;17.58;12.77;;;3.10;62.80;;;;;;4996710;28;20120;-69
2023/01/28 23:53:49;;;;;;;16.17;11.27;;;3.00;62.70;;;;;;4999019;28;20034;-70
2023/01/28 23:56:16;;;;;;;14.50;9.98;;;3.00;62.70;;;;;;5012268;28;20799;-69
2023/01/28 23:58:42;;;;;;;12.70;8.60;;;3.00;62.80;;;;;;4995360;28;20460;-68
